sensor_id;sensor_type;location;lat;lon;timestamp;P1;durP1;ratioP1;P2;durP2;ratioP2
64244;SDS011;50584;29.058;-110.966;2023-01-05T00:01:11;25.10;;;3.33;;
64244;SDS011;50584;29.058;-110.966;2023-01-05T00:03:38;20.42;;;2.80;;
64244;SDS011;50584;29.058;-110.966;2023-01-05T00:08:30;17.38;;;3.10;;
64244;SDS011;50584;29.058;-110.966;2023-01-05T00:10:56;25.33;;;3.20;;
64244;SDS011;50584;29.058;-110.966;2023-01-05T00:13:40;15.98;;;2.92;;
64244;SDS011;50584;29.058;-110.966;2023-01-05T00:16:23;11.82;;;2.80;;
64244;SDS011;50584;29.058;-110.966;2023-01-05T00:19:10;8.18;;;2.75;;
64244;SDS011;50584;29.058;-110.966;2023-01-05T00:21:54;14.43;;;3.13;;
64244;SDS011;50584;29.058;-110.966;2023-01-05T00:24:39;20.33;;;3.22;;
64244;SDS011;50584;29.058;-110.966;2023-01-05T00:27:05;13.43;;;2.95;;
64244;SDS011;50584;29.058;-110.966;2023-01-05T00:29:30;19.65;;;3.50;;
64244;SDS011;50584;29.058;-110.966;2023-01-05T00:31:56;25.85;;;3.38;;
64244;SDS011;50584;29.058;-110.966;2023-01-05T00:34:22;20.75;;;4.20;;
64244;SDS011;50584;29.058;-110.966;2023-01-05T00:36:48;14.23;;;2.95;;
64244;SDS011;50584;29.058;-110.966;2023-01-05T00:39:14;8.68;;;2.45;;
64244;SDS011;50584;29.058;-110.966;2023-01-05T00:41:39;7.80;;;2.42;;
64244;SDS011;50584;29.058;-110.966;2023-01-05T00:44:05;7.57;;;2.47;;
64244;SDS011;50584;29.058;-110.966;2023-01-05T00:46:31;3.90;;;1.70;;
64244;SDS011;50584;29.058;-110.966;2023-01-05T00:48:57;10.40;;;2.10;;
64244;SDS011;50584;29.058;-110.966;2023-01-05T00:51:22;3.80;;;2.05;;
64244;SDS011;50584;29.058;-110.966;2023-01-05T00:53:48;8.00;;;2.13;;
64244;SDS011;50584;29.058;-110.966;2023-01-05T00:56:14;11.32;;;2.17;;
64244;SDS011;50584;29.058;-110.966;2023-01-05T00:58:43;7.38;;;2.45;;
64244;SDS011;50584;29.058;-110.966;2023-01-05T01:01:09;4.32;;;1.98;;
64244;SDS011;50584;29.058;-110.966;2023-01-05T01:03:35;12.45;;;2.08;;
64244;SDS011;50584;29.058;-110.966;2023-01-05T01:06:01;7.20;;;2.10;;
64244;SDS011;50584;29.058;-110.966;2023-01-05T01:08:27;9.52;;;2.70;;
64244;SDS011;50584;29.058;-110.966;2023-01-05T01:10:52;14.00;;;2.75;;
64244;SDS011;50584;29.058;-110.966;2023-01-05T01:13:18;8.57;;;2.28;;
64244;SDS011;50584;29.058;-110.966;2023-01-05T01:15:44;9.45;;;2.70;;
64244;SDS011;50584;29.058;-110.966;2023-01-05T01:18:10;11.32;;;2.22;;
64244;SDS011;50584;29.058;-110.966;2023-01-05T01:20:36;7.10;;;2.22;;
64244;SDS011;50584;29.058;-110.966;2023-01-05T01:23:02;10.55;;;2.53;;
64244;SDS011;50584;29.058;-110.966;2023-01-05T01:25:29;9.75;;;2.95;;
64244;SDS011;50584;29.058;-110.966;2023-01-05T01:27:55;12.55;;;3.22;;
64244;SDS011;50584;29.058;-110.966;2023-01-05T01:30:20;11.05;;;3.40;;
64244;SDS011;50584;29.058;-110.966;2023-01-05T01:32:46;27.83;;;4.50;;
64244;SDS011;50584;29.058;-110.966;2023-01-05T01:35:12;15.65;;;3.90;;
64244;SDS011;50584;29.058;-110.966;2023-01-05T01:37:38;15.70;;;3.90;;
64244;SDS011;50584;29.058;-110.966;2023-01-05T01:40:05;15.02;;;3.03;;
64244;SDS011;50584;29.058;-110.966;2023-01-05T01:42:32;6.60;;;2.78;;
64244;SDS011;50584;29.058;-110.966;2023-01-05T01:44:58;8.00;;;2.80;;
64244;SDS011;50584;29.058;-110.966;2023-01-05T01:49:51;6.15;;;2.15;;
64244;SDS011;50584;29.058;-110.966;2023-01-05T01:52:18;1.65;;;1.52;;
64244;SDS011;50584;29.058;-110.966;2023-01-05T01:54:44;5.18;;;2.05;;
64244;SDS011;50584;29.058;-110.966;2023-01-05T01:57:10;8.02;;;1.92;;
64244;SDS011;50584;29.058;-110.966;2023-01-05T01:59:37;6.57;;;1.75;;
64244;SDS011;50584;29.058;-110.966;2023-01-05T02:02:03;1.73;;;1.60;;
64244;SDS011;50584;29.058;-110.966;2023-01-05T02:04:31;4.55;;;1.55;;
64244;SDS011;50584;29.058;-110.966;2023-01-05T02:06:58;1.90;;;1.60;;
64244;SDS011;50584;29.058;-110.966;2023-01-05T02:09:24;3.20;;;1.67;;
64244;SDS011;50584;29.058;-110.966;2023-01-05T02:14:49;2.90;;;2.00;;
64244;SDS011;50584;29.058;-110.966;2023-01-05T02:35:40;12.10;;;2.30;;
64244;SDS011;50584;29.058;-110.966;2023-01-05T02:38:21;4.13;;;1.92;;
64244;SDS011;50584;29.058;-110.966;2023-01-05T02:40:48;5.37;;;2.63;;
64244;SDS011;50584;29.058;-110.966;2023-01-05T02:43:17;6.88;;;3.40;;
64244;SDS011;50584;29.058;-110.966;2023-01-05T02:45:45;5.63;;;2.42;;
64244;SDS011;50584;29.058;-110.966;2023-01-05T02:48:10;7.15;;;2.60;;
64244;SDS011;50584;29.058;-110.966;2023-01-05T02:50:48;5.25;;;2.58;;
64244;SDS011;50584;29.058;-110.966;2023-01-05T02:55:43;11.25;;;2.67;;
64244;SDS011;50584;29.058;-110.966;2023-01-05T02:58:11;16.80;;;3.30;;
64244;SDS011;50584;29.058;-110.966;2023-01-05T03:00:39;9.27;;;3.72;;
64244;SDS011;50584;29.058;-110.966;2023-01-05T03:03:18;19.95;;;4.53;;
64244;SDS011;50584;29.058;-110.966;2023-01-05T03:05:48;26.30;;;4.75;;
64244;SDS011;50584;29.058;-110.966;2023-01-05T03:08:16;23.50;;;5.85;;
64244;SDS011;50584;29.058;-110.966;2023-01-05T03:11:02;33.97;;;5.57;;
64244;SDS011;50584;29.058;-110.966;2023-01-05T03:13:49;27.08;;;6.60;;
64244;SDS011;50584;29.058;-110.966;2023-01-05T03:16:24;51.08;;;6.70;;
64244;SDS011;50584;29.058;-110.966;2023-01-05T03:18:51;34.90;;;7.13;;
64244;SDS011;50584;29.058;-110.966;2023-01-05T03:21:36;25.33;;;7.32;;
64244;SDS011;50584;29.058;-110.966;2023-01-05T03:24:20;30.50;;;6.85;;
64244;SDS011;50584;29.058;-110.966;2023-01-05T03:27:04;32.30;;;6.00;;
64244;SDS011;50584;29.058;-110.966;2023-01-05T03:29:50;19.58;;;4.63;;
64244;SDS011;50584;29.058;-110.966;2023-01-05T03:32:34;15.27;;;3.90;;
64244;SDS011;50584;29.058;-110.966;2023-01-05T03:35:21;13.98;;;3.45;;
64244;SDS011;50584;29.058;-110.966;2023-01-05T03:38:12;14.75;;;2.45;;
64244;SDS011;50584;29.058;-110.966;2023-01-05T03:40:38;8.25;;;2.53;;
64244;SDS011;50584;29.058;-110.966;2023-01-05T03:43:05;7.90;;;1.95;;
64244;SDS011;50584;29.058;-110.966;2023-01-05T03:45:34;7.22;;;2.33;;
64244;SDS011;50584;29.058;-110.966;2023-01-05T03:48:00;7.70;;;2.30;;
64244;SDS011;50584;29.058;-110.966;2023-01-05T03:50:26;11.45;;;2.50;;
64244;SDS011;50584;29.058;-110.966;2023-01-05T03:52:53;9.68;;;2.20;;
64244;SDS011;50584;29.058;-110.966;2023-01-05T03:55:18;15.25;;;4.80;;
64244;SDS011;50584;29.058;-110.966;2023-01-05T03:57:44;14.77;;;4.43;;
64244;SDS011;50584;29.058;-110.966;2023-01-05T04:00:10;13.88;;;4.50;;
64244;SDS011;50584;29.058;-110.966;2023-01-05T04:02:36;12.32;;;4.90;;
64244;SDS011;50584;29.058;-110.966;2023-01-05T04:05:02;30.35;;;5.32;;
64244;SDS011;50584;29.058;-110.966;2023-01-05T04:07:28;31.10;;;6.95;;
64244;SDS011;50584;29.058;-110.966;2023-01-05T04:09:53;21.33;;;6.20;;
64244;SDS011;50584;29.058;-110.966;2023-01-05T04:12:19;28.48;;;6.50;;
64244;SDS011;50584;29.058;-110.966;2023-01-05T04:14:45;34.92;;;6.60;;
64244;SDS011;50584;29.058;-110.966;2023-01-05T04:17:11;16.23;;;5.70;;
64244;SDS011;50584;29.058;-110.966;2023-01-05T04:19:36;28.90;;;6.32;;
64244;SDS011;50584;29.058;-110.966;2023-01-05T04:22:02;12.43;;;5.03;;
64244;SDS011;50584;29.058;-110.966;2023-01-05T04:24:28;16.88;;;5.10;;
64244;SDS011;50584;29.058;-110.966;2023-01-05T04:26:54;16.13;;;4.97;;
64244;SDS011;50584;29.058;-110.966;2023-01-05T04:29:20;20.52;;;4.63;;
64244;SDS011;50584;29.058;-110.966;2023-01-05T04:31:45;14.18;;;4.65;;
64244;SDS011;50584;29.058;-110.966;2023-01-05T04:34:11;24.63;;;4.47;;
64244;SDS011;50584;29.058;-110.966;2023-01-05T04:36:37;8.65;;;4.13;;
64244;SDS011;50584;29.058;-110.966;2023-01-05T04:39:03;17.05;;;5.35;;
64244;SDS011;50584;29.058;-110.966;2023-01-05T04:41:29;10.80;;;4.68;;
64244;SDS011;50584;29.058;-110.966;2023-01-05T04:43:54;24.48;;;5.03;;
64244;SDS011;50584;29.058;-110.966;2023-01-05T04:46:20;18.15;;;4.15;;
64244;SDS011;50584;29.058;-110.966;2023-01-05T04:48:46;16.77;;;4.80;;
64244;SDS011;50584;29.058;-110.966;2023-01-05T04:51:12;11.05;;;4.47;;
64244;SDS011;50584;29.058;-110.966;2023-01-05T04:53:37;31.20;;;5.55;;
64244;SDS011;50584;29.058;-110.966;2023-01-05T04:56:03;42.35;;;8.30;;
64244;SDS011;50584;29.058;-110.966;2023-01-05T04:58:29;38.90;;;8.40;;
64244;SDS011;50584;29.058;-110.966;2023-01-05T05:00:55;25.75;;;6.82;;
64244;SDS011;50584;29.058;-110.966;2023-01-05T05:03:21;47.67;;;9.15;;
64244;SDS011;50584;29.058;-110.966;2023-01-05T05:05:46;42.75;;;9.65;;
64244;SDS011;50584;29.058;-110.966;2023-01-05T05:08:12;49.92;;;10.80;;
64244;SDS011;50584;29.058;-110.966;2023-01-05T05:10:38;45.90;;;8.35;;
64244;SDS011;50584;29.058;-110.966;2023-01-05T05:13:04;60.20;;;10.65;;
64244;SDS011;50584;29.058;-110.966;2023-01-05T05:15:30;61.33;;;11.43;;
64244;SDS011;50584;29.058;-110.966;2023-01-05T05:17:56;57.08;;;12.23;;
64244;SDS011;50584;29.058;-110.966;2023-01-05T05:20:21;43.78;;;9.50;;
64244;SDS011;50584;29.058;-110.966;2023-01-05T05:22:47;37.42;;;9.55;;
64244;SDS011;50584;29.058;-110.966;2023-01-05T05:25:13;48.15;;;8.70;;
64244;SDS011;50584;29.058;-110.966;2023-01-05T05:27:39;44.70;;;8.80;;
64244;SDS011;50584;29.058;-110.966;2023-01-05T05:30:05;33.67;;;8.35;;
64244;SDS011;50584;29.058;-110.966;2023-01-05T05:32:31;41.22;;;9.23;;
64244;SDS011;50584;29.058;-110.966;2023-01-05T05:34:56;45.55;;;10.63;;
64244;SDS011;50584;29.058;-110.966;2023-01-05T05:37:22;58.40;;;14.82;;
64244;SDS011;50584;29.058;-110.966;2023-01-05T05:39:48;66.47;;;20.52;;
64244;SDS011;50584;29.058;-110.966;2023-01-05T05:42:14;70.35;;;21.42;;
64244;SDS011;50584;29.058;-110.966;2023-01-05T05:44:40;50.17;;;15.35;;
64244;SDS011;50584;29.058;-110.966;2023-01-05T05:47:05;48.15;;;12.90;;
64244;SDS011;50584;29.058;-110.966;2023-01-05T05:49:31;67.30;;;18.65;;
64244;SDS011;50584;29.058;-110.966;2023-01-05T05:51:57;79.13;;;17.08;;
64244;SDS011;50584;29.058;-110.966;2023-01-05T05:54:23;96.22;;;30.45;;
64244;SDS011;50584;29.058;-110.966;2023-01-05T05:56:48;47.22;;;13.48;;
64244;SDS011;50584;29.058;-110.966;2023-01-05T05:59:14;39.78;;;11.00;;
64244;SDS011;50584;29.058;-110.966;2023-01-05T06:01:40;42.47;;;13.60;;
64244;SDS011;50584;29.058;-110.966;2023-01-05T06:04:06;40.50;;;10.50;;
64244;SDS011;50584;29.058;-110.966;2023-01-05T06:06:32;39.55;;;11.32;;
64244;SDS011;50584;29.058;-110.966;2023-01-05T06:08:57;39.92;;;11.38;;
64244;SDS011;50584;29.058;-110.966;2023-01-05T06:11:23;44.22;;;10.32;;
64244;SDS011;50584;29.058;-110.966;2023-01-05T06:13:49;28.10;;;8.60;;
64244;SDS011;50584;29.058;-110.966;2023-01-05T06:16:15;50.08;;;9.63;;
64244;SDS011;50584;29.058;-110.966;2023-01-05T06:18:41;39.20;;;12.43;;
64244;SDS011;50584;29.058;-110.966;2023-01-05T06:21:06;37.00;;;13.70;;
64244;SDS011;50584;29.058;-110.966;2023-01-05T06:23:33;28.27;;;8.38;;
64244;SDS011;50584;29.058;-110.966;2023-01-05T06:25:59;34.20;;;11.02;;
64244;SDS011;50584;29.058;-110.966;2023-01-05T06:28:24;38.58;;;9.38;;
64244;SDS011;50584;29.058;-110.966;2023-01-05T06:30:50;27.35;;;8.02;;
64244;SDS011;50584;29.058;-110.966;2023-01-05T06:33:16;30.92;;;8.07;;
64244;SDS011;50584;29.058;-110.966;2023-01-05T06:35:42;27.85;;;10.00;;
64244;SDS011;50584;29.058;-110.966;2023-01-05T06:38:08;29.58;;;11.55;;
64244;SDS011;50584;29.058;-110.966;2023-01-05T06:40:35;31.95;;;7.82;;
64244;SDS011;50584;29.058;-110.966;2023-01-05T06:43:01;38.58;;;8.57;;
64244;SDS011;50584;29.058;-110.966;2023-01-05T06:45:27;33.03;;;7.78;;
64244;SDS011;50584;29.058;-110.966;2023-01-05T06:47:52;29.63;;;8.20;;
64244;SDS011;50584;29.058;-110.966;2023-01-05T06:50:18;41.72;;;8.20;;
64244;SDS011;50584;29.058;-110.966;2023-01-05T06:52:44;29.10;;;7.43;;
64244;SDS011;50584;29.058;-110.966;2023-01-05T06:55:10;44.15;;;7.78;;
64244;SDS011;50584;29.058;-110.966;2023-01-05T06:57:36;36.83;;;8.27;;
64244;SDS011;50584;29.058;-110.966;2023-01-05T07:00:03;25.80;;;6.57;;
64244;SDS011;50584;29.058;-110.966;2023-01-05T07:02:30;31.48;;;6.35;;
64244;SDS011;50584;29.058;-110.966;2023-01-05T07:04:56;25.42;;;6.88;;
64244;SDS011;50584;29.058;-110.966;2023-01-05T07:07:25;15.85;;;6.07;;
64244;SDS011;50584;29.058;-110.966;2023-01-05T07:09:51;36.80;;;5.90;;
64244;SDS011;50584;29.058;-110.966;2023-01-05T07:12:16;19.02;;;5.55;;
64244;SDS011;50584;29.058;-110.966;2023-01-05T07:14:42;28.00;;;5.25;;
64244;SDS011;50584;29.058;-110.966;2023-01-05T07:17:08;18.70;;;5.25;;
64244;SDS011;50584;29.058;-110.966;2023-01-05T07:19:37;17.77;;;4.90;;
64244;SDS011;50584;29.058;-110.966;2023-01-05T07:22:02;19.45;;;4.72;;
64244;SDS011;50584;29.058;-110.966;2023-01-05T07:24:28;18.60;;;4.85;;
64244;SDS011;50584;29.058;-110.966;2023-01-05T07:26:54;14.32;;;5.30;;
64244;SDS011;50584;29.058;-110.966;2023-01-05T07:29:20;11.52;;;4.60;;
64244;SDS011;50584;29.058;-110.966;2023-01-05T07:31:46;14.73;;;4.60;;
64244;SDS011;50584;29.058;-110.966;2023-01-05T07:34:17;11.43;;;3.42;;
64244;SDS011;50584;29.058;-110.966;2023-01-05T07:36:42;12.88;;;3.35;;
64244;SDS011;50584;29.058;-110.966;2023-01-05T07:39:08;8.70;;;3.38;;
64244;SDS011;50584;29.058;-110.966;2023-01-05T07:41:34;12.48;;;3.70;;
64244;SDS011;50584;29.058;-110.966;2023-01-05T07:44:00;18.42;;;3.83;;
64244;SDS011;50584;29.058;-110.966;2023-01-05T07:46:25;10.90;;;5.20;;
64244;SDS011;50584;29.058;-110.966;2023-01-05T07:48:51;16.05;;;3.70;;
64244;SDS011;50584;29.058;-110.966;2023-01-05T07:51:17;12.25;;;6.65;;
64244;SDS011;50584;29.058;-110.966;2023-01-05T07:53:43;16.05;;;3.13;;
64244;SDS011;50584;29.058;-110.966;2023-01-05T07:56:09;10.23;;;3.42;;
64244;SDS011;50584;29.058;-110.966;2023-01-05T07:58:35;18.38;;;3.85;;
64244;SDS011;50584;29.058;-110.966;2023-01-05T08:01:05;14.00;;;4.68;;
64244;SDS011;50584;29.058;-110.966;2023-01-05T08:03:31;13.75;;;4.03;;
64244;SDS011;50584;29.058;-110.966;2023-01-05T08:05:57;21.52;;;5.50;;
64244;SDS011;50584;29.058;-110.966;2023-01-05T08:08:26;12.45;;;4.43;;
64244;SDS011;50584;29.058;-110.966;2023-01-05T08:10:52;17.17;;;5.22;;
64244;SDS011;50584;29.058;-110.966;2023-01-05T08:13:18;21.35;;;5.18;;
64244;SDS011;50584;29.058;-110.966;2023-01-05T08:16:02;6.90;;;2.92;;
64244;SDS011;50584;29.058;-110.966;2023-01-05T08:18:28;14.23;;;4.00;;
64244;SDS011;50584;29.058;-110.966;2023-01-05T08:20:55;11.77;;;5.00;;
64244;SDS011;50584;29.058;-110.966;2023-01-05T08:23:22;18.10;;;6.95;;
64244;SDS011;50584;29.058;-110.966;2023-01-05T08:25:48;15.50;;;5.55;;
64244;SDS011;50584;29.058;-110.966;2023-01-05T08:28:14;8.90;;;3.30;;
64244;SDS011;50584;29.058;-110.966;2023-01-05T08:30:39;13.45;;;3.20;;
64244;SDS011;50584;29.058;-110.966;2023-01-05T08:33:05;10.30;;;3.63;;
64244;SDS011;50584;29.058;-110.966;2023-01-05T08:35:31;8.73;;;3.38;;
64244;SDS011;50584;29.058;-110.966;2023-01-05T08:37:57;10.98;;;4.15;;
64244;SDS011;50584;29.058;-110.966;2023-01-05T08:40:22;6.82;;;3.35;;
64244;SDS011;50584;29.058;-110.966;2023-01-05T08:42:49;5.55;;;3.33;;
64244;SDS011;50584;29.058;-110.966;2023-01-05T08:45:16;14.05;;;4.75;;
64244;SDS011;50584;29.058;-110.966;2023-01-05T08:47:42;22.25;;;5.57;;
64244;SDS011;50584;29.058;-110.966;2023-01-05T08:50:09;22.90;;;6.97;;
64244;SDS011;50584;29.058;-110.966;2023-01-05T08:52:38;10.82;;;4.63;;
64244;SDS011;50584;29.058;-110.966;2023-01-05T08:55:05;10.77;;;4.15;;
64244;SDS011;50584;29.058;-110.966;2023-01-05T08:57:32;15.00;;;3.95;;
64244;SDS011;50584;29.058;-110.966;2023-01-05T08:59:58;13.50;;;4.85;;
64244;SDS011;50584;29.058;-110.966;2023-01-05T09:02:24;13.80;;;4.32;;
64244;SDS011;50584;29.058;-110.966;2023-01-05T09:04:50;11.85;;;3.53;;
64244;SDS011;50584;29.058;-110.966;2023-01-05T09:07:16;5.93;;;4.22;;
64244;SDS011;50584;29.058;-110.966;2023-01-05T09:09:42;5.28;;;2.60;;
64244;SDS011;50584;29.058;-110.966;2023-01-05T09:12:08;3.22;;;2.67;;
64244;SDS011;50584;29.058;-110.966;2023-01-05T09:14:34;12.73;;;3.15;;
64244;SDS011;50584;29.058;-110.966;2023-01-05T09:16:59;13.35;;;2.83;;
64244;SDS011;50584;29.058;-110.966;2023-01-05T09:19:25;6.55;;;3.03;;
64244;SDS011;50584;29.058;-110.966;2023-01-05T09:21:51;2.67;;;2.40;;
64244;SDS011;50584;29.058;-110.966;2023-01-05T09:24:17;14.65;;;3.28;;
64244;SDS011;50584;29.058;-110.966;2023-01-05T09:26:43;7.85;;;2.55;;
64244;SDS011;50584;29.058;-110.966;2023-01-05T09:29:10;4.82;;;2.70;;
64244;SDS011;50584;29.058;-110.966;2023-01-05T09:31:36;7.22;;;3.03;;
64244;SDS011;50584;29.058;-110.966;2023-01-05T09:34:02;7.75;;;2.88;;
64244;SDS011;50584;29.058;-110.966;2023-01-05T09:36:28;3.33;;;2.70;;
64244;SDS011;50584;29.058;-110.966;2023-01-05T09:38:54;5.93;;;2.47;;
64244;SDS011;50584;29.058;-110.966;2023-01-05T09:41:27;5.82;;;2.03;;
64244;SDS011;50584;29.058;-110.966;2023-01-05T09:43:58;6.32;;;3.30;;
64244;SDS011;50584;29.058;-110.966;2023-01-05T09:46:26;5.10;;;2.55;;
64244;SDS011;50584;29.058;-110.966;2023-01-05T09:48:55;8.85;;;3.03;;
64244;SDS011;50584;29.058;-110.966;2023-01-05T09:51:21;3.40;;;2.05;;
64244;SDS011;50584;29.058;-110.966;2023-01-05T09:53:47;6.25;;;2.35;;
64244;SDS011;50584;29.058;-110.966;2023-01-05T09:56:35;4.45;;;2.55;;
64244;SDS011;50584;29.058;-110.966;2023-01-05T09:59:45;7.32;;;2.50;;
64244;SDS011;50584;29.058;-110.966;2023-01-05T10:01:45;4.43;;;2.10;;
64244;SDS011;50584;29.058;-110.966;2023-01-05T10:04:13;4.75;;;2.70;;
64244;SDS011;50584;29.058;-110.966;2023-01-05T10:06:41;9.85;;;2.83;;
64244;SDS011;50584;29.058;-110.966;2023-01-05T10:09:09;3.60;;;2.17;;
64244;SDS011;50584;29.058;-110.966;2023-01-05T10:14:23;5.97;;;2.30;;
64244;SDS011;50584;29.058;-110.966;2023-01-05T10:16:50;2.40;;;2.20;;
64244;SDS011;50584;29.058;-110.966;2023-01-05T10:19:18;3.47;;;2.28;;
64244;SDS011;50584;29.058;-110.966;2023-01-05T10:26:48;7.05;;;3.03;;
64244;SDS011;50584;29.058;-110.966;2023-01-05T10:29:18;6.50;;;2.70;;
64244;SDS011;50584;29.058;-110.966;2023-01-05T10:37:19;4.60;;;3.03;;
64244;SDS011;50584;29.058;-110.966;2023-01-05T10:47:09;4.30;;;2.10;;
64244;SDS011;50584;29.058;-110.966;2023-01-05T10:49:35;3.95;;;1.92;;
64244;SDS011;50584;29.058;-110.966;2023-01-05T10:52:02;3.40;;;2.58;;
64244;SDS011;50584;29.058;-110.966;2023-01-05T10:54:35;2.17;;;2.00;;
64244;SDS011;50584;29.058;-110.966;2023-01-05T10:59:55;2.30;;;2.10;;
64244;SDS011;50584;29.058;-110.966;2023-01-05T11:02:26;7.78;;;2.65;;
64244;SDS011;50584;29.058;-110.966;2023-01-05T11:04:53;5.88;;;2.15;;
64244;SDS011;50584;29.058;-110.966;2023-01-05T11:07:19;3.78;;;3.00;;
64244;SDS011;50584;29.058;-110.966;2023-01-05T11:09:46;8.32;;;2.80;;
64244;SDS011;50584;29.058;-110.966;2023-01-05T11:12:19;4.82;;;2.30;;
64244;SDS011;50584;29.058;-110.966;2023-01-05T11:14:50;4.95;;;1.92;;
64244;SDS011;50584;29.058;-110.966;2023-01-05T11:17:18;3.97;;;2.30;;
64244;SDS011;50584;29.058;-110.966;2023-01-05T11:19:45;6.30;;;2.50;;
64244;SDS011;50584;29.058;-110.966;2023-01-05T11:25:13;1.83;;;1.55;;
64244;SDS011;50584;29.058;-110.966;2023-01-05T11:27:39;3.30;;;1.98;;
64244;SDS011;50584;29.058;-110.966;2023-01-05T11:32:40;3.40;;;1.80;;
64244;SDS011;50584;29.058;-110.966;2023-01-05T11:35:20;2.08;;;1.70;;
64244;SDS011;50584;29.058;-110.966;2023-01-05T11:37:46;3.15;;;1.98;;
64244;SDS011;50584;29.058;-110.966;2023-01-05T11:40:16;4.35;;;1.40;;
64244;SDS011;50584;29.058;-110.966;2023-01-05T11:42:42;1.20;;;1.20;;
64244;SDS011;50584;29.058;-110.966;2023-01-05T11:47:39;2.88;;;2.15;;
64244;SDS011;50584;29.058;-110.966;2023-01-05T11:52:47;10.55;;;2.20;;
64244;SDS011;50584;29.058;-110.966;2023-01-05T11:57:46;4.47;;;1.88;;
64244;SDS011;50584;29.058;-110.966;2023-01-05T12:08:03;8.85;;;1.50;;
64244;SDS011;50584;29.058;-110.966;2023-01-05T12:13:04;3.63;;;1.70;;
64244;SDS011;50584;29.058;-110.966;2023-01-05T12:25:57;4.03;;;2.00;;
64244;SDS011;50584;29.058;-110.966;2023-01-05T12:38:59;4.45;;;2.03;;
64244;SDS011;50584;29.058;-110.966;2023-01-05T12:41:38;9.38;;;1.75;;
64244;SDS011;50584;29.058;-110.966;2023-01-05T12:46:43;4.72;;;2.00;;
64244;SDS011;50584;29.058;-110.966;2023-01-05T12:49:17;3.03;;;1.80;;
64244;SDS011;50584;29.058;-110.966;2023-01-05T12:54:21;3.58;;;1.67;;
64244;SDS011;50584;29.058;-110.966;2023-01-05T12:56:52;2.15;;;1.48;;
64244;SDS011;50584;29.058;-110.966;2023-01-05T12:59:22;2.85;;;1.50;;
64244;SDS011;50584;29.058;-110.966;2023-01-05T13:01:55;1.30;;;1.23;;
64244;SDS011;50584;29.058;-110.966;2023-01-05T13:04:40;1.23;;;1.15;;
64244;SDS011;50584;29.058;-110.966;2023-01-05T13:07:15;1.77;;;1.33;;
64244;SDS011;50584;29.058;-110.966;2023-01-05T13:09:42;3.80;;;1.35;;
64244;SDS011;50584;29.058;-110.966;2023-01-05T13:12:09;1.15;;;1.10;;
64244;SDS011;50584;29.058;-110.966;2023-01-05T13:14:40;3.97;;;1.50;;
64244;SDS011;50584;29.058;-110.966;2023-01-05T13:17:25;2.00;;;1.70;;
64244;SDS011;50584;29.058;-110.966;2023-01-05T13:20:02;2.30;;;1.30;;
64244;SDS011;50584;29.058;-110.966;2023-01-05T13:22:31;1.52;;;1.23;;
64244;SDS011;50584;29.058;-110.966;2023-01-05T13:27:24;1.80;;;1.70;;
64244;SDS011;50584;29.058;-110.966;2023-01-05T13:29:50;2.78;;;1.40;;
64244;SDS011;50584;29.058;-110.966;2023-01-05T13:37:42;5.55;;;1.83;;
64244;SDS011;50584;29.058;-110.966;2023-01-05T13:40:20;2.03;;;1.55;;
64244;SDS011;50584;29.058;-110.966;2023-01-05T13:55:31;1.38;;;1.38;;
64244;SDS011;50584;29.058;-110.966;2023-01-05T13:57:58;2.38;;;1.60;;
64244;SDS011;50584;29.058;-110.966;2023-01-05T14:00:32;3.72;;;1.58;;
64244;SDS011;50584;29.058;-110.966;2023-01-05T14:05:53;2.42;;;1.73;;
64244;SDS011;50584;29.058;-110.966;2023-01-05T14:08:27;3.35;;;1.90;;
64244;SDS011;50584;29.058;-110.966;2023-01-05T14:13:49;4.07;;;1.83;;
64244;SDS011;50584;29.058;-110.966;2023-01-05T14:24:38;1.60;;;1.50;;
64244;SDS011;50584;29.058;-110.966;2023-01-05T14:27:08;3.65;;;1.80;;
64244;SDS011;50584;29.058;-110.966;2023-01-05T14:32:10;4.00;;;1.80;;
64244;SDS011;50584;29.058;-110.966;2023-01-05T14:34:36;5.00;;;1.40;;
64244;SDS011;50584;29.058;-110.966;2023-01-05T14:37:22;6.90;;;2.13;;
64244;SDS011;50584;29.058;-110.966;2023-01-05T14:39:49;17.40;;;6.88;;
64244;SDS011;50584;29.058;-110.966;2023-01-05T14:42:38;27.85;;;8.30;;
64244;SDS011;50584;29.058;-110.966;2023-01-05T14:45:07;27.73;;;8.65;;
64244;SDS011;50584;29.058;-110.966;2023-01-05T14:47:42;23.63;;;9.30;;
64244;SDS011;50584;29.058;-110.966;2023-01-05T14:55:23;23.67;;;7.78;;
64244;SDS011;50584;29.058;-110.966;2023-01-05T14:57:51;26.08;;;8.80;;
64244;SDS011;50584;29.058;-110.966;2023-01-05T15:00:22;17.98;;;5.80;;
64244;SDS011;50584;29.058;-110.966;2023-01-05T15:05:18;19.15;;;6.25;;
64244;SDS011;50584;29.058;-110.966;2023-01-05T15:36:02;7.30;;;2.58;;
64244;SDS011;50584;29.058;-110.966;2023-01-05T15:38:29;13.73;;;2.92;;
64244;SDS011;50584;29.058;-110.966;2023-01-05T15:43:24;7.75;;;2.33;;
64244;SDS011;50584;29.058;-110.966;2023-01-05T15:45:50;14.30;;;2.17;;
64244;SDS011;50584;29.058;-110.966;2023-01-05T15:48:24;9.38;;;2.03;;
64244;SDS011;50584;29.058;-110.966;2023-01-05T15:50:51;11.52;;;1.92;;
64244;SDS011;50584;29.058;-110.966;2023-01-05T15:55:49;8.85;;;1.67;;
64244;SDS011;50584;29.058;-110.966;2023-01-05T15:58:17;9.10;;;1.90;;
64244;SDS011;50584;29.058;-110.966;2023-01-05T16:00:43;9.05;;;1.95;;
64244;SDS011;50584;29.058;-110.966;2023-01-05T16:03:28;6.38;;;1.90;;
64244;SDS011;50584;29.058;-110.966;2023-01-05T16:05:57;3.07;;;1.93;;
64244;SDS011;50584;29.058;-110.966;2023-01-05T16:08:24;5.40;;;1.73;;
64244;SDS011;50584;29.058;-110.966;2023-01-05T16:10:51;9.05;;;2.53;;
64244;SDS011;50584;29.058;-110.966;2023-01-05T16:13:20;1.92;;;1.83;;
64244;SDS011;50584;29.058;-110.966;2023-01-05T16:15:51;5.53;;;2.25;;
64244;SDS011;50584;29.058;-110.966;2023-01-05T16:18:21;3.97;;;2.63;;
64244;SDS011;50584;29.058;-110.966;2023-01-05T16:20:48;4.23;;;2.10;;
64244;SDS011;50584;29.058;-110.966;2023-01-05T16:23:16;4.20;;;1.70;;
64244;SDS011;50584;29.058;-110.966;2023-01-05T16:25:52;11.45;;;1.83;;
64244;SDS011;50584;29.058;-110.966;2023-01-05T16:28:19;6.00;;;1.60;;
64244;SDS011;50584;29.058;-110.966;2023-01-05T16:30:46;8.00;;;2.28;;
64244;SDS011;50584;29.058;-110.966;2023-01-05T16:35:46;5.10;;;2.13;;
64244;SDS011;50584;29.058;-110.966;2023-01-05T16:38:17;13.20;;;3.92;;
64244;SDS011;50584;29.058;-110.966;2023-01-05T16:43:17;6.88;;;2.40;;
64244;SDS011;50584;29.058;-110.966;2023-01-05T16:45:43;4.60;;;2.78;;
64244;SDS011;50584;29.058;-110.966;2023-01-05T16:50:54;6.20;;;1.33;;
64244;SDS011;50584;29.058;-110.966;2023-01-05T16:53:20;14.85;;;6.38;;
64244;SDS011;50584;29.058;-110.966;2023-01-05T16:55:47;7.78;;;2.03;;
64244;SDS011;50584;29.058;-110.966;2023-01-05T17:01:15;4.05;;;1.52;;
64244;SDS011;50584;29.058;-110.966;2023-01-05T17:03:40;2.97;;;1.50;;
64244;SDS011;50584;29.058;-110.966;2023-01-05T17:08:41;8.52;;;2.00;;
64244;SDS011;50584;29.058;-110.966;2023-01-05T17:11:08;5.47;;;1.50;;
64244;SDS011;50584;29.058;-110.966;2023-01-05T17:13:50;5.38;;;1.50;;
64244;SDS011;50584;29.058;-110.966;2023-01-05T17:16:19;8.07;;;2.00;;
64244;SDS011;50584;29.058;-110.966;2023-01-05T17:18:46;4.30;;;2.13;;
64244;SDS011;50584;29.058;-110.966;2023-01-05T17:21:14;5.57;;;1.45;;